sensor_id;sensor_type;location;lat;lon;timestamp;P1;durP1;ratioP1;P2;durP2;ratioP2
13641;SDS011;6894;52.196;9.904;2024-01-06T00:01:56;1.77;;;0.67;;
13641;SDS011;6894;52.196;9.904;2024-01-06T00:04:23;1.93;;;0.50;;
13641;SDS011;6894;52.196;9.904;2024-01-06T00:06:50;3.07;;;1.00;;
13641;SDS011;6894;52.196;9.904;2024-01-06T00:09:17;1.57;;;0.63;;
13641;SDS011;6894;52.196;9.904;2024-01-06T00:11:43;1.67;;;0.77;;
13641;SDS011;6894;52.196;9.904;2024-01-06T00:14:10;1.37;;;0.60;;
13641;SDS011;6894;52.196;9.904;2024-01-06T00:16:38;1.77;;;0.60;;
13641;SDS011;6894;52.196;9.904;2024-01-06T00:19:05;1.03;;;0.57;;
13641;SDS011;6894;52.196;9.904;2024-01-06T00:21:32;1.93;;;0.90;;
13641;SDS011;6894;52.196;9.904;2024-01-06T00:23:59;1.23;;;0.80;;
13641;SDS011;6894;52.196;9.904;2024-01-06T00:26:26;1.73;;;0.57;;
13641;SDS011;6894;52.196;9.904;2024-01-06T00:28:53;1.73;;;0.60;;
13641;SDS011;6894;52.196;9.904;2024-01-06T00:31:20;1.57;;;0.60;;
13641;SDS011;6894;52.196;9.904;2024-01-06T00:33:48;1.77;;;0.60;;
13641;SDS011;6894;52.196;9.904;2024-01-06T00:36:14;2.83;;;0.70;;
13641;SDS011;6894;52.196;9.904;2024-01-06T00:38:41;1.10;;;0.70;;
13641;SDS011;6894;52.196;9.904;2024-01-06T00:41:08;1.20;;;0.70;;
13641;SDS011;6894;52.196;9.904;2024-01-06T00:43:35;2.70;;;0.83;;
13641;SDS011;6894;52.196;9.904;2024-01-06T00:46:02;3.87;;;0.90;;
13641;SDS011;6894;52.196;9.904;2024-01-06T00:48:29;1.37;;;0.80;;
13641;SDS011;6894;52.196;9.904;2024-01-06T00:50:57;0.83;;;0.70;;
13641;SDS011;6894;52.196;9.904;2024-01-06T00:53:24;1.50;;;0.60;;
13641;SDS011;6894;52.196;9.904;2024-01-06T00:55:50;1.17;;;0.80;;
13641;SDS011;6894;52.196;9.904;2024-01-06T00:58:17;3.63;;;1.23;;
13641;SDS011;6894;52.196;9.904;2024-01-06T01:00:44;1.37;;;0.90;;
13641;SDS011;6894;52.196;9.904;2024-01-06T01:03:11;2.10;;;0.97;;
13641;SDS011;6894;52.196;9.904;2024-01-06T01:05:37;1.33;;;0.90;;
13641;SDS011;6894;52.196;9.904;2024-01-06T01:08:06;1.40;;;0.73;;
13641;SDS011;6894;52.196;9.904;2024-01-06T01:10:33;1.30;;;0.70;;
13641;SDS011;6894;52.196;9.904;2024-01-06T01:12:59;4.07;;;0.90;;
13641;SDS011;6894;52.196;9.904;2024-01-06T01:15:26;1.80;;;0.90;;
13641;SDS011;6894;52.196;9.904;2024-01-06T01:17:53;1.97;;;0.70;;
13641;SDS011;6894;52.196;9.904;2024-01-06T01:20:20;2.43;;;0.90;;
13641;SDS011;6894;52.196;9.904;2024-01-06T01:22:46;0.93;;;0.50;;
13641;SDS011;6894;52.196;9.904;2024-01-06T01:25:15;2.47;;;0.70;;
13641;SDS011;6894;52.196;9.904;2024-01-06T01:27:41;2.77;;;0.90;;
13641;SDS011;6894;52.196;9.904;2024-01-06T01:30:09;2.47;;;0.90;;
13641;SDS011;6894;52.196;9.904;2024-01-06T01:32:36;0.63;;;0.63;;
13641;SDS011;6894;52.196;9.904;2024-01-06T01:35:03;2.03;;;0.70;;
13641;SDS011;6894;52.196;9.904;2024-01-06T01:37:31;1.87;;;0.80;;
13641;SDS011;6894;52.196;9.904;2024-01-06T01:39:57;2.13;;;0.80;;
13641;SDS011;6894;52.196;9.904;2024-01-06T01:42:26;2.77;;;0.80;;
13641;SDS011;6894;52.196;9.904;2024-01-06T01:44:53;1.13;;;0.60;;
13641;SDS011;6894;52.196;9.904;2024-01-06T01:47:19;1.73;;;0.90;;
13641;SDS011;6894;52.196;9.904;2024-01-06T01:49:46;2.67;;;0.90;;
13641;SDS011;6894;52.196;9.904;2024-01-06T01:52:13;1.67;;;0.80;;
13641;SDS011;6894;52.196;9.904;2024-01-06T01:54:41;1.60;;;0.97;;
13641;SDS011;6894;52.196;9.904;2024-01-06T01:57:09;3.47;;;0.63;;
13641;SDS011;6894;52.196;9.904;2024-01-06T01:59:38;1.30;;;0.70;;
13641;SDS011;6894;52.196;9.904;2024-01-06T02:02:05;1.37;;;0.67;;
13641;SDS011;6894;52.196;9.904;2024-01-06T02:04:33;1.50;;;0.63;;
13641;SDS011;6894;52.196;9.904;2024-01-06T02:06:59;1.13;;;0.70;;
13641;SDS011;6894;52.196;9.904;2024-01-06T02:09:26;3.27;;;0.73;;
13641;SDS011;6894;52.196;9.904;2024-01-06T02:11:54;1.43;;;0.60;;
13641;SDS011;6894;52.196;9.904;2024-01-06T02:14:22;1.97;;;0.70;;
13641;SDS011;6894;52.196;9.904;2024-01-06T02:16:50;1.80;;;0.87;;
13641;SDS011;6894;52.196;9.904;2024-01-06T02:19:17;2.47;;;0.87;;
13641;SDS011;6894;52.196;9.904;2024-01-06T02:21:48;2.10;;;0.60;;
13641;SDS011;6894;52.196;9.904;2024-01-06T02:24:15;7.10;;;1.03;;
13641;SDS011;6894;52.196;9.904;2024-01-06T02:26:42;1.50;;;0.80;;
13641;SDS011;6894;52.196;9.904;2024-01-06T02:29:08;0.97;;;0.80;;
13641;SDS011;6894;52.196;9.904;2024-01-06T02:31:35;1.07;;;0.80;;
13641;SDS011;6894;52.196;9.904;2024-01-06T02:34:02;1.53;;;0.73;;
13641;SDS011;6894;52.196;9.904;2024-01-06T02:36:29;2.00;;;0.90;;
13641;SDS011;6894;52.196;9.904;2024-01-06T02:38:57;2.53;;;0.83;;
13641;SDS011;6894;52.196;9.904;2024-01-06T02:41:23;2.30;;;0.90;;
13641;SDS011;6894;52.196;9.904;2024-01-06T02:43:50;2.33;;;0.73;;
13641;SDS011;6894;52.196;9.904;2024-01-06T02:46:17;2.70;;;0.70;;
13641;SDS011;6894;52.196;9.904;2024-01-06T02:48:44;1.40;;;1.10;;
13641;SDS011;6894;52.196;9.904;2024-01-06T02:51:10;2.00;;;0.80;;
13641;SDS011;6894;52.196;9.904;2024-01-06T02:53:38;2.13;;;0.90;;
13641;SDS011;6894;52.196;9.904;2024-01-06T02:56:10;2.67;;;0.80;;
13641;SDS011;6894;52.196;9.904;2024-01-06T02:58:37;1.80;;;1.00;;
13641;SDS011;6894;52.196;9.904;2024-01-06T03:01:04;3.13;;;0.80;;
13641;SDS011;6894;52.196;9.904;2024-01-06T03:03:30;1.80;;;0.77;;
13641;SDS011;6894;52.196;9.904;2024-01-06T03:05:57;4.73;;;0.90;;
13641;SDS011;6894;52.196;9.904;2024-01-06T03:08:25;1.30;;;0.70;;
13641;SDS011;6894;52.196;9.904;2024-01-06T03:10:51;1.67;;;1.00;;
13641;SDS011;6894;52.196;9.904;2024-01-06T03:13:20;2.67;;;0.97;;
13641;SDS011;6894;52.196;9.904;2024-01-06T03:15:46;1.80;;;1.00;;
13641;SDS011;6894;52.196;9.904;2024-01-06T03:18:13;2.80;;;1.13;;
13641;SDS011;6894;52.196;9.904;2024-01-06T03:20:40;1.37;;;0.80;;
13641;SDS011;6894;52.196;9.904;2024-01-06T03:23:07;1.43;;;0.80;;
13641;SDS011;6894;52.196;9.904;2024-01-06T03:25:33;2.70;;;1.23;;
13641;SDS011;6894;52.196;9.904;2024-01-06T03:28:00;1.53;;;0.80;;
13641;SDS011;6894;52.196;9.904;2024-01-06T03:30:28;1.90;;;1.20;;
13641;SDS011;6894;52.196;9.904;2024-01-06T03:32:55;2.37;;;0.87;;
13641;SDS011;6894;52.196;9.904;2024-01-06T03:35:22;1.03;;;0.77;;
13641;SDS011;6894;52.196;9.904;2024-01-06T03:37:49;0.80;;;0.70;;
13641;SDS011;6894;52.196;9.904;2024-01-06T03:40:15;2.10;;;0.90;;
13641;SDS011;6894;52.196;9.904;2024-01-06T03:42:42;2.20;;;0.80;;
13641;SDS011;6894;52.196;9.904;2024-01-06T03:45:09;1.50;;;1.40;;
13641;SDS011;6894;52.196;9.904;2024-01-06T03:47:37;1.17;;;0.90;;
13641;SDS011;6894;52.196;9.904;2024-01-06T03:50:04;2.00;;;0.93;;
13641;SDS011;6894;52.196;9.904;2024-01-06T03:52:31;2.47;;;0.90;;
13641;SDS011;6894;52.196;9.904;2024-01-06T03:54:58;1.63;;;0.60;;
13641;SDS011;6894;52.196;9.904;2024-01-06T03:57:24;2.30;;;0.70;;
13641;SDS011;6894;52.196;9.904;2024-01-06T03:59:51;2.37;;;1.10;;
13641;SDS011;6894;52.196;9.904;2024-01-06T04:02:18;3.53;;;0.83;;
13641;SDS011;6894;52.196;9.904;2024-01-06T04:04:46;1.23;;;0.93;;
13641;SDS011;6894;52.196;9.904;2024-01-06T04:07:13;2.30;;;1.67;;
13641;SDS011;6894;52.196;9.904;2024-01-06T04:09:41;4.10;;;3.27;;
13641;SDS011;6894;52.196;9.904;2024-01-06T04:12:08;9.10;;;5.40;;
13641;SDS011;6894;52.196;9.904;2024-01-06T04:14:35;7.13;;;5.73;;
13641;SDS011;6894;52.196;9.904;2024-01-06T04:17:02;9.93;;;6.40;;
13641;SDS011;6894;52.196;9.904;2024-01-06T04:19:29;7.60;;;6.43;;
13641;SDS011;6894;52.196;9.904;2024-01-06T04:21:57;8.87;;;6.40;;
13641;SDS011;6894;52.196;9.904;2024-01-06T04:24:25;8.63;;;6.13;;
13641;SDS011;6894;52.196;9.904;2024-01-06T04:26:51;3.30;;;2.33;;
13641;SDS011;6894;52.196;9.904;2024-01-06T04:29:18;2.90;;;1.70;;
13641;SDS011;6894;52.196;9.904;2024-01-06T04:31:45;2.83;;;1.20;;
13641;SDS011;6894;52.196;9.904;2024-01-06T04:34:12;1.30;;;0.83;;
13641;SDS011;6894;52.196;9.904;2024-01-06T04:36:39;1.80;;;0.97;;
13641;SDS011;6894;52.196;9.904;2024-01-06T04:39:07;2.63;;;0.97;;
13641;SDS011;6894;52.196;9.904;2024-01-06T04:41:34;2.87;;;1.83;;
13641;SDS011;6894;52.196;9.904;2024-01-06T04:44:01;5.30;;;3.80;;
13641;SDS011;6894;52.196;9.904;2024-01-06T04:46:28;9.30;;;6.60;;
13641;SDS011;6894;52.196;9.904;2024-01-06T04:48:55;10.13;;;7.10;;
13641;SDS011;6894;52.196;9.904;2024-01-06T04:51:22;9.10;;;7.63;;
13641;SDS011;6894;52.196;9.904;2024-01-06T04:53:49;10.63;;;8.40;;
13641;SDS011;6894;52.196;9.904;2024-01-06T04:56:17;8.70;;;7.10;;
13641;SDS011;6894;52.196;9.904;2024-01-06T04:58:44;9.27;;;7.40;;
13641;SDS011;6894;52.196;9.904;2024-01-06T05:01:11;8.67;;;7.70;;
13641;SDS011;6894;52.196;9.904;2024-01-06T05:03:38;9.17;;;7.50;;
13641;SDS011;6894;52.196;9.904;2024-01-06T05:06:04;10.47;;;8.67;;
13641;SDS011;6894;52.196;9.904;2024-01-06T05:08:31;9.67;;;8.53;;
13641;SDS011;6894;52.196;9.904;2024-01-06T05:10:58;10.20;;;8.63;;
13641;SDS011;6894;52.196;9.904;2024-01-06T05:13:27;9.07;;;7.40;;
13641;SDS011;6894;52.196;9.904;2024-01-06T05:15:54;7.80;;;6.33;;
13641;SDS011;6894;52.196;9.904;2024-01-06T05:18:20;9.30;;;7.03;;
13641;SDS011;6894;52.196;9.904;2024-01-06T05:20:47;7.47;;;6.13;;
13641;SDS011;6894;52.196;9.904;2024-01-06T05:23:14;9.23;;;6.67;;
13641;SDS011;6894;52.196;9.904;2024-01-06T05:25:41;7.00;;;5.90;;
13641;SDS011;6894;52.196;9.904;2024-01-06T05:28:08;8.90;;;6.40;;
13641;SDS011;6894;52.196;9.904;2024-01-06T05:30:36;7.70;;;6.03;;
13641;SDS011;6894;52.196;9.904;2024-01-06T05:33:03;8.63;;;6.17;;
13641;SDS011;6894;52.196;9.904;2024-01-06T05:35:30;8.43;;;6.50;;
13641;SDS011;6894;52.196;9.904;2024-01-06T05:37:57;8.47;;;5.53;;
13641;SDS011;6894;52.196;9.904;2024-01-06T05:40:23;6.90;;;6.03;;
13641;SDS011;6894;52.196;9.904;2024-01-06T05:42:50;8.30;;;6.37;;
13641;SDS011;6894;52.196;9.904;2024-01-06T05:45:20;9.70;;;7.20;;
13641;SDS011;6894;52.196;9.904;2024-01-06T05:47:48;9.20;;;7.10;;
13641;SDS011;6894;52.196;9.904;2024-01-06T05:50:15;8.70;;;7.33;;
13641;SDS011;6894;52.196;9.904;2024-01-06T05:52:42;10.13;;;7.97;;
13641;SDS011;6894;52.196;9.904;2024-01-06T05:55:09;9.57;;;8.50;;
13641;SDS011;6894;52.196;9.904;2024-01-06T05:57:36;10.00;;;8.53;;
13641;SDS011;6894;52.196;9.904;2024-01-06T06:00:03;13.67;;;9.63;;
13641;SDS011;6894;52.196;9.904;2024-01-06T06:02:33;12.70;;;8.77;;
13641;SDS011;6894;52.196;9.904;2024-01-06T06:05:01;10.70;;;9.17;;
13641;SDS011;6894;52.196;9.904;2024-01-06T06:07:28;10.80;;;9.30;;
13641;SDS011;6894;52.196;9.904;2024-01-06T06:09:55;12.73;;;9.23;;
13641;SDS011;6894;52.196;9.904;2024-01-06T06:12:22;11.93;;;9.10;;
13641;SDS011;6894;52.196;9.904;2024-01-06T06:14:49;9.50;;;8.47;;
13641;SDS011;6894;52.196;9.904;2024-01-06T06:17:15;11.80;;;10.00;;
13641;SDS011;6894;52.196;9.904;2024-01-06T06:19:42;11.90;;;10.00;;
13641;SDS011;6894;52.196;9.904;2024-01-06T06:22:10;11.27;;;9.30;;
13641;SDS011;6894;52.196;9.904;2024-01-06T06:24:37;12.70;;;10.03;;
13641;SDS011;6894;52.196;9.904;2024-01-06T06:27:04;12.93;;;10.57;;
13641;SDS011;6894;52.196;9.904;2024-01-06T06:29:31;11.23;;;9.70;;
13641;SDS011;6894;52.196;9.904;2024-01-06T06:31:57;18.37;;;11.90;;
13641;SDS011;6894;52.196;9.904;2024-01-06T06:34:24;14.40;;;10.90;;
13641;SDS011;6894;52.196;9.904;2024-01-06T06:36:51;12.97;;;10.87;;
13641;SDS011;6894;52.196;9.904;2024-01-06T06:39:19;13.23;;;11.00;;
13641;SDS011;6894;52.196;9.904;2024-01-06T06:41:46;13.80;;;10.10;;
13641;SDS011;6894;52.196;9.904;2024-01-06T06:44:13;12.50;;;10.30;;
13641;SDS011;6894;52.196;9.904;2024-01-06T06:46:39;18.13;;;11.63;;
13641;SDS011;6894;52.196;9.904;2024-01-06T06:49:06;12.53;;;11.23;;
13641;SDS011;6894;52.196;9.904;2024-01-06T06:51:33;14.47;;;11.80;;
13641;SDS011;6894;52.196;9.904;2024-01-06T06:54:00;14.63;;;11.30;;
13641;SDS011;6894;52.196;9.904;2024-01-06T06:56:28;13.77;;;11.50;;
13641;SDS011;6894;52.196;9.904;2024-01-06T06:58:54;14.60;;;11.33;;
13641;SDS011;6894;52.196;9.904;2024-01-06T07:01:21;13.83;;;11.70;;
13641;SDS011;6894;52.196;9.904;2024-01-06T07:03:48;15.70;;;11.17;;
13641;SDS011;6894;52.196;9.904;2024-01-06T07:06:15;15.60;;;10.90;;
13641;SDS011;6894;52.196;9.904;2024-01-06T07:08:41;15.17;;;11.53;;
13641;SDS011;6894;52.196;9.904;2024-01-06T07:11:07;18.37;;;12.70;;
13641;SDS011;6894;52.196;9.904;2024-01-06T07:13:37;13.50;;;11.27;;
13641;SDS011;6894;52.196;9.904;2024-01-06T07:16:05;14.93;;;11.33;;
13641;SDS011;6894;52.196;9.904;2024-01-06T07:18:32;13.53;;;10.70;;
13641;SDS011;6894;52.196;9.904;2024-01-06T07:20:59;15.33;;;11.10;;
13641;SDS011;6894;52.196;9.904;2024-01-06T07:23:25;15.43;;;11.47;;
13641;SDS011;6894;52.196;9.904;2024-01-06T07:25:52;18.73;;;12.83;;
13641;SDS011;6894;52.196;9.904;2024-01-06T07:28:21;15.80;;;12.33;;
13641;SDS011;6894;52.196;9.904;2024-01-06T07:30:49;17.30;;;12.63;;
13641;SDS011;6894;52.196;9.904;2024-01-06T07:33:16;17.53;;;13.03;;
13641;SDS011;6894;52.196;9.904;2024-01-06T07:35:42;19.03;;;13.40;;
13641;SDS011;6894;52.196;9.904;2024-01-06T07:38:11;16.37;;;12.63;;
13641;SDS011;6894;52.196;9.904;2024-01-06T07:40:37;17.27;;;12.47;;
13641;SDS011;6894;52.196;9.904;2024-01-06T07:43:05;15.83;;;12.13;;
13641;SDS011;6894;52.196;9.904;2024-01-06T07:45:32;17.53;;;11.97;;
13641;SDS011;6894;52.196;9.904;2024-01-06T07:48:01;16.40;;;12.07;;
13641;SDS011;6894;52.196;9.904;2024-01-06T07:50:28;18.67;;;13.73;;
13641;SDS011;6894;52.196;9.904;2024-01-06T07:52:55;19.83;;;12.87;;
13641;SDS011;6894;52.196;9.904;2024-01-06T07:55:23;19.97;;;13.83;;
13641;SDS011;6894;52.196;9.904;2024-01-06T07:57:51;20.90;;;13.47;;
13641;SDS011;6894;52.196;9.904;2024-01-06T08:00:18;19.27;;;14.40;;
13641;SDS011;6894;52.196;9.904;2024-01-06T08:02:45;20.20;;;13.13;;
13641;SDS011;6894;52.196;9.904;2024-01-06T08:05:13;18.43;;;12.73;;
13641;SDS011;6894;52.196;9.904;2024-01-06T08:07:40;17.00;;;13.17;;
13641;SDS011;6894;52.196;9.904;2024-01-06T08:10:07;16.00;;;12.00;;
13641;SDS011;6894;52.196;9.904;2024-01-06T08:12:34;16.80;;;12.83;;
13641;SDS011;6894;52.196;9.904;2024-01-06T08:15:02;16.80;;;12.63;;
13641;SDS011;6894;52.196;9.904;2024-01-06T08:17:29;18.57;;;12.90;;
13641;SDS011;6894;52.196;9.904;2024-01-06T08:19:56;17.87;;;12.60;;
13641;SDS011;6894;52.196;9.904;2024-01-06T08:22:24;18.57;;;11.93;;
13641;SDS011;6894;52.196;9.904;2024-01-06T08:24:51;20.40;;;12.80;;
13641;SDS011;6894;52.196;9.904;2024-01-06T08:27:18;19.97;;;13.00;;
13641;SDS011;6894;52.196;9.904;2024-01-06T08:29:46;16.97;;;11.63;;
13641;SDS011;6894;52.196;9.904;2024-01-06T08:32:13;18.47;;;12.60;;
13641;SDS011;6894;52.196;9.904;2024-01-06T08:34:40;16.27;;;12.17;;
13641;SDS011;6894;52.196;9.904;2024-01-06T08:37:06;17.67;;;12.77;;
13641;SDS011;6894;52.196;9.904;2024-01-06T08:39:34;19.23;;;13.30;;
13641;SDS011;6894;52.196;9.904;2024-01-06T08:42:01;17.33;;;11.57;;
13641;SDS011;6894;52.196;9.904;2024-01-06T08:44:28;18.47;;;13.60;;
13641;SDS011;6894;52.196;9.904;2024-01-06T08:46:55;16.80;;;12.47;;
13641;SDS011;6894;52.196;9.904;2024-01-06T08:49:22;16.07;;;12.83;;
13641;SDS011;6894;52.196;9.904;2024-01-06T08:51:49;20.63;;;12.47;;
13641;SDS011;6894;52.196;9.904;2024-01-06T08:54:16;20.90;;;12.27;;
13641;SDS011;6894;52.196;9.904;2024-01-06T08:56:44;17.77;;;12.37;;
13641;SDS011;6894;52.196;9.904;2024-01-06T08:59:11;18.53;;;13.03;;
13641;SDS011;6894;52.196;9.904;2024-01-06T09:01:37;19.17;;;12.60;;
13641;SDS011;6894;52.196;9.904;2024-01-06T09:04:04;16.70;;;12.77;;
13641;SDS011;6894;52.196;9.904;2024-01-06T09:06:31;24.03;;;13.13;;
13641;SDS011;6894;52.196;9.904;2024-01-06T09:08:58;16.90;;;12.47;;
13641;SDS011;6894;52.196;9.904;2024-01-06T09:11:25;20.60;;;12.97;;
13641;SDS011;6894;52.196;9.904;2024-01-06T09:13:53;19.40;;;13.33;;
13641;SDS011;6894;52.196;9.904;2024-01-06T09:16:20;19.63;;;13.93;;
13641;SDS011;6894;52.196;9.904;2024-01-06T09:18:47;20.53;;;13.70;;
13641;SDS011;6894;52.196;9.904;2024-01-06T09:21:14;17.47;;;12.67;;
13641;SDS011;6894;52.196;9.904;2024-01-06T09:23:41;18.67;;;13.67;;
13641;SDS011;6894;52.196;9.904;2024-01-06T09:26:08;21.93;;;14.17;;
13641;SDS011;6894;52.196;9.904;2024-01-06T09:28:35;20.13;;;13.63;;
13641;SDS011;6894;52.196;9.904;2024-01-06T09:31:03;20.47;;;13.63;;
13641;SDS011;6894;52.196;9.904;2024-01-06T09:33:30;22.47;;;13.93;;
13641;SDS011;6894;52.196;9.904;2024-01-06T09:35:59;21.63;;;14.20;;
13641;SDS011;6894;52.196;9.904;2024-01-06T09:38:25;20.30;;;14.23;;
13641;SDS011;6894;52.196;9.904;2024-01-06T09:40:52;27.90;;;15.87;;
13641;SDS011;6894;52.196;9.904;2024-01-06T09:43:19;21.87;;;14.73;;
13641;SDS011;6894;52.196;9.904;2024-01-06T09:45:48;23.37;;;13.70;;
13641;SDS011;6894;52.196;9.904;2024-01-06T09:48:23;23.20;;;14.67;;
13641;SDS011;6894;52.196;9.904;2024-01-06T09:50:56;24.13;;;13.77;;
13641;SDS011;6894;52.196;9.904;2024-01-06T09:53:24;25.40;;;15.37;;
13641;SDS011;6894;52.196;9.904;2024-01-06T09:55:55;22.67;;;13.90;;
13641;SDS011;6894;52.196;9.904;2024-01-06T09:58:22;25.27;;;15.13;;
13641;SDS011;6894;52.196;9.904;2024-01-06T10:00:54;25.47;;;15.63;;
13641;SDS011;6894;52.196;9.904;2024-01-06T10:03:23;28.97;;;15.97;;
13641;SDS011;6894;52.196;9.904;2024-01-06T10:05:51;29.10;;;17.03;;
13641;SDS011;6894;52.196;9.904;2024-01-06T10:08:18;29.17;;;17.17;;
13641;SDS011;6894;52.196;9.904;2024-01-06T10:10:44;28.47;;;16.70;;
13641;SDS011;6894;52.196;9.904;2024-01-06T10:13:11;25.47;;;17.57;;
13641;SDS011;6894;52.196;9.904;2024-01-06T10:15:43;29.43;;;16.93;;
13641;SDS011;6894;52.196;9.904;2024-01-06T10:18:10;27.77;;;16.33;;
13641;SDS011;6894;52.196;9.904;2024-01-06T10:20:38;29.80;;;16.93;;
13641;SDS011;6894;52.196;9.904;2024-01-06T10:23:05;27.67;;;16.63;;
13641;SDS011;6894;52.196;9.904;2024-01-06T10:25:32;25.37;;;16.10;;
13641;SDS011;6894;52.196;9.904;2024-01-06T10:28:00;29.23;;;16.17;;
13641;SDS011;6894;52.196;9.904;2024-01-06T10:30:28;28.20;;;15.30;;
13641;SDS011;6894;52.196;9.904;2024-01-06T10:32:55;29.00;;;16.40;;
13641;SDS011;6894;52.196;9.904;2024-01-06T10:35:23;28.57;;;16.97;;
13641;SDS011;6894;52.196;9.904;2024-01-06T10:37:52;29.50;;;17.33;;
13641;SDS011;6894;52.196;9.904;2024-01-06T10:40:20;27.53;;;15.73;;
13641;SDS011;6894;52.196;9.904;2024-01-06T10:42:46;32.77;;;17.37;;
13641;SDS011;6894;52.196;9.904;2024-01-06T10:45:13;25.37;;;15.93;;
13641;SDS011;6894;52.196;9.904;2024-01-06T10:47:41;25.37;;;15.37;;
13641;SDS011;6894;52.196;9.904;2024-01-06T10:50:09;24.67;;;14.70;;
13641;SDS011;6894;52.196;9.904;2024-01-06T10:52:38;24.53;;;15.03;;
13641;SDS011;6894;52.196;9.904;2024-01-06T10:55:07;33.03;;;17.70;;
13641;SDS011;6894;52.196;9.904;2024-01-06T10:57:34;26.27;;;15.07;;
13641;SDS011;6894;52.196;9.904;2024-01-06T11:00:03;22.93;;;15.33;;
13641;SDS011;6894;52.196;9.904;2024-01-06T11:02:31;22.30;;;14.37;;
13641;SDS011;6894;52.196;9.904;2024-01-06T11:04:59;22.53;;;15.50;;
13641;SDS011;6894;52.196;9.904;2024-01-06T11:07:26;24.30;;;14.90;;
13641;SDS011;6894;52.196;9.904;2024-01-06T11:09:56;24.73;;;15.10;;
13641;SDS011;6894;52.196;9.904;2024-01-06T11:12:25;20.23;;;13.97;;
13641;SDS011;6894;52.196;9.904;2024-01-06T11:14:52;22.87;;;14.87;;
13641;SDS011;6894;52.196;9.904;2024-01-06T11:20:23;27.33;;;15.07;;
13641;SDS011;6894;52.196;9.904;2024-01-06T11:22:51;23.57;;;14.40;;
13641;SDS011;6894;52.196;9.904;2024-01-06T11:25:19;27.87;;;15.07;;
13641;SDS011;6894;52.196;9.904;2024-01-06T11:27:49;25.90;;;14.93;;
13641;SDS011;6894;52.196;9.904;2024-01-06T11:30:22;24.77;;;15.73;;
13641;SDS011;6894;52.196;9.904;2024-01-06T11:32:51;27.83;;;14.30;;
13641;SDS011;6894;52.196;9.904;2024-01-06T11:35:18;22.13;;;14.80;;
13641;SDS011;6894;52.196;9.904;2024-01-06T11:37:56;26.20;;;15.67;;
13641;SDS011;6894;52.196;9.904;2024-01-06T11:40:24;23.23;;;15.07;;
13641;SDS011;6894;52.196;9.904;2024-01-06T11:42:59;24.60;;;14.47;;
13641;SDS011;6894;52.196;9.904;2024-01-06T11:45:28;24.77;;;15.80;;
13641;SDS011;6894;52.196;9.904;2024-01-06T11:47:56;23.93;;;15.23;;
13641;SDS011;6894;52.196;9.904;2024-01-06T11:50:23;25.37;;;15.50;;
13641;SDS011;6894;52.196;9.904;2024-01-06T11:52:51;28.13;;;16.10;;
13641;SDS011;6894;52.196;9.904;2024-01-06T11:55:18;29.60;;;15.67;;
13641;SDS011;6894;52.196;9.904;2024-01-06T11:57:45;25.63;;;14.63;;
13641;SDS011;6894;52.196;9.904;2024-01-06T12:00:14;25.37;;;15.60;;
13641;SDS011;6894;52.196;9.904;2024-01-06T12:02:41;26.73;;;15.03;;
13641;SDS011;6894;52.196;9.904;2024-01-06T12:05:12;26.70;;;15.87;;
13641;SDS011;6894;52.196;9.904;2024-01-06T12:07:40;23.63;;;13.77;;
13641;SDS011;6894;52.196;9.904;2024-01-06T12:10:07;22.83;;;13.50;;
13641;SDS011;6894;52.196;9.904;2024-01-06T12:12:35;24.73;;;14.30;;
13641;SDS011;6894;52.196;9.904;2024-01-06T12:15:02;25.33;;;13.27;;
13641;SDS011;6894;52.196;9.904;2024-01-06T12:17:31;21.87;;;12.87;;
13641;SDS011;6894;52.196;9.904;2024-01-06T12:19:57;24.37;;;13.70;;
13641;SDS011;6894;52.196;9.904;2024-01-06T12:22:25;19.73;;;13.23;;
13641;SDS011;6894;52.196;9.904;2024-01-06T12:24:53;23.00;;;13.73;;
13641;SDS011;6894;52.196;9.904;2024-01-06T12:27:19;24.97;;;14.13;;
13641;SDS011;6894;52.196;9.904;2024-01-06T12:29:46;23.40;;;13.67;;
13641;SDS011;6894;52.196;9.904;2024-01-06T12:32:13;21.63;;;13.00;;
13641;SDS011;6894;52.196;9.904;2024-01-06T12:34:41;18.63;;;11.50;;
13641;SDS011;6894;52.196;9.904;2024-01-06T12:37:08;21.17;;;12.87;;
13641;SDS011;6894;52.196;9.904;2024-01-06T12:39:35;18.57;;;11.40;;
13641;SDS011;6894;52.196;9.904;2024-01-06T12:42:04;21.07;;;11.80;;
13641;SDS011;6894;52.196;9.904;2024-01-06T12:44:30;20.10;;;11.77;;
13641;SDS011;6894;52.196;9.904;2024-01-06T12:47:02;21.40;;;12.77;;
13641;SDS011;6894;52.196;9.904;2024-01-06T12:49:28;15.87;;;11.47;;
13641;SDS011;6894;52.196;9.904;2024-01-06T12:51:57;20.20;;;12.03;;
13641;SDS011;6894;52.196;9.904;2024-01-06T12:54:23;20.90;;;11.67;;
13641;SDS011;6894;52.196;9.904;2024-01-06T12:56:50;17.13;;;11.53;;
13641;SDS011;6894;52.196;9.904;2024-01-06T12:59:17;16.37;;;11.33;;
13641;SDS011;6894;52.196;9.904;2024-01-06T13:01:44;18.83;;;11.10;;
13641;SDS011;6894;52.196;9.904;2024-01-06T13:04:11;18.53;;;10.53;;
13641;SDS011;6894;52.196;9.904;2024-01-06T13:06:38;16.97;;;10.50;;
13641;SDS011;6894;52.196;9.904;2024-01-06T13:09:07;17.67;;;10.87;;
13641;SDS011;6894;52.196;9.904;2024-01-06T13:11:34;18.77;;;11.60;;
13641;SDS011;6894;52.196;9.904;2024-01-06T13:14:02;18.10;;;11.07;;
13641;SDS011;6894;52.196;9.904;2024-01-06T13:16:29;21.27;;;12.97;;
13641;SDS011;6894;52.196;9.904;2024-01-06T13:18:55;19.63;;;12.00;;
13641;SDS011;6894;52.196;9.904;2024-01-06T13:21:22;20.70;;;12.73;;
13641;SDS011;6894;52.196;9.904;2024-01-06T13:23:49;21.70;;;12.47;;
13641;SDS011;6894;52.196;9.904;2024-01-06T13:26:17;22.63;;;13.87;;
13641;SDS011;6894;52.196;9.904;2024-01-06T13:28:44;25.77;;;13.53;;
13641;SDS011;6894;52.196;9.904;2024-01-06T13:31:11;23.67;;;13.43;;
13641;SDS011;6894;52.196;9.904;2024-01-06T13:33:38;27.27;;;13.70;;
13641;SDS011;6894;52.196;9.904;2024-01-06T13:36:05;24.03;;;13.67;;
13641;SDS011;6894;52.196;9.904;2024-01-06T13:38:32;26.17;;;12.37;;
13641;SDS011;6894;52.196;9.904;2024-01-06T13:40:58;25.03;;;13.90;;
13641;SDS011;6894;52.196;9.904;2024-01-06T13:43:27;34.37;;;14.70;;
13641;SDS011;6894;52.196;9.904;2024-01-06T13:45:53;26.67;;;14.30;;
13641;SDS011;6894;52.196;9.904;2024-01-06T13:48:21;34.63;;;16.33;;
13641;SDS011;6894;52.196;9.904;2024-01-06T13:50:47;32.60;;;16.30;;
13641;SDS011;6894;52.196;9.904;2024-01-06T13:53:14;28.67;;;16.07;;
13641;SDS011;6894;52.196;9.904;2024-01-06T13:55:41;30.13;;;15.60;;
13641;SDS011;6894;52.196;9.904;2024-01-06T13:58:08;32.70;;;16.07;;
13641;SDS011;6894;52.196;9.904;2024-01-06T14:00:37;41.50;;;17.47;;
13641;SDS011;6894;52.196;9.904;2024-01-06T14:03:04;31.73;;;16.13;;
13641;SDS011;6894;52.196;9.904;2024-01-06T14:05:32;44.17;;;17.20;;
13641;SDS011;6894;52.196;9.904;2024-01-06T14:07:59;32.13;;;16.30;;
13641;SDS011;6894;52.196;9.904;2024-01-06T14:10:26;35.40;;;17.73;;
13641;SDS011;6894;52.196;9.904;2024-01-06T14:12:54;39.10;;;16.80;;
13641;SDS011;6894;52.196;9.904;2024-01-06T14:15:21;32.43;;;15.83;;
13641;SDS011;6894;52.196;9.904;2024-01-06T14:17:49;25.20;;;13.70;;
13641;SDS011;6894;52.196;9.904;2024-01-06T14:20:16;27.07;;;15.20;;
13641;SDS011;6894;52.196;9.904;2024-01-06T14:22:43;27.57;;;14.57;;
13641;SDS011;6894;52.196;9.904;2024-01-06T14:25:10;31.00;;;14.37;;
13641;SDS011;6894;52.196;9.904;2024-01-06T14:27:38;25.07;;;13.87;;
13641;SDS011;6894;52.196;9.904;2024-01-06T14:30:05;35.10;;;15.43;;
13641;SDS011;6894;52.196;9.904;2024-01-06T14:32:34;23.33;;;13.93;;
13641;SDS011;6894;52.196;9.904;2024-01-06T14:35:03;33.10;;;15.23;;
13641;SDS011;6894;52.196;9.904;2024-01-06T14:37:31;22.63;;;13.70;;
13641;SDS011;6894;52.196;9.904;2024-01-06T14:39:58;30.03;;;14.60;;
13641;SDS011;6894;52.196;9.904;2024-01-06T14:42:30;25.17;;;13.53;;
13641;SDS011;6894;52.196;9.904;2024-01-06T14:44:56;28.40;;;13.67;;
13641;SDS011;6894;52.196;9.904;2024-01-06T14:47:23;24.77;;;13.47;;
13641;SDS011;6894;52.196;9.904;2024-01-06T14:49:50;29.97;;;13.87;;